Caieiras, Brazil
Current Conditions -  °F | °C
As of 4:00 PM on Thursday 23 Oct 2014 (Local Time) from SBTE Reporting Station
Few Clouds Few Clouds  
Wind Chill: 99°   Ceiling: Unl
Heat Index: 99°   Visibility: 6mi
Dew Point: 61°   Wind: 3mph
Humidity: 29%   Direction: 260°W
Pressure: 29.77"   Gusts: NA
Location:  4.9°S, 42.98°W
Report Text: SBTE 231900Z 26003KT 9999 FEW030 37/16 Q1008
Loading
Personal Weather Stations






























Interactive Weather Map
Tropical Storm Tracking
New forecast layout! Learn more

10-Day Weather Forecast

Advertisements
Track Severe Weather on mobile